sensor_id;sensor_type;location;lat;lon;timestamp;P1;durP1;ratioP1;P2;durP2;ratioP2
69327;SDS011;56472;52.114;5.492;2023-05-07T12:29:39;3.08;;;2.05;;
69327;SDS011;56472;52.114;5.492;2023-05-07T12:32:07;1.73;;;1.63;;
69327;SDS011;56472;52.114;5.492;2023-05-07T12:34:41;2.67;;;1.70;;
69327;SDS011;56472;52.114;5.492;2023-05-07T12:37:11;3.00;;;1.75;;
69327;SDS011;56472;52.114;5.492;2023-05-07T12:39:48;1.70;;;1.60;;
69327;SDS011;56472;52.114;5.492;2023-05-07T12:42:16;2.13;;;1.75;;
69327;SDS011;56472;52.114;5.492;2023-05-07T12:44:46;1.58;;;1.48;;
69327;SDS011;56472;52.114;5.492;2023-05-07T12:47:13;2.50;;;1.55;;
69327;SDS011;56472;52.114;5.492;2023-05-07T12:49:43;1.75;;;1.52;;
69327;SDS011;56472;52.114;5.492;2023-05-07T12:52:12;1.65;;;1.58;;
69327;SDS011;56472;52.114;5.492;2023-05-07T12:54:39;1.40;;;1.40;;
69327;SDS011;56472;52.114;5.492;2023-05-07T12:57:07;1.80;;;1.70;;
69327;SDS011;56472;52.114;5.492;2023-05-07T12:59:36;1.98;;;1.80;;
69327;SDS011;56472;52.114;5.492;2023-05-07T13:02:04;1.95;;;1.85;;
69327;SDS011;56472;52.114;5.492;2023-05-07T13:04:33;1.73;;;1.63;;
69327;SDS011;56472;52.114;5.492;2023-05-07T13:07:00;1.67;;;1.58;;
69327;SDS011;56472;52.114;5.492;2023-05-07T13:09:28;1.95;;;1.52;;
69327;SDS011;56472;52.114;5.492;2023-05-07T13:11:58;1.90;;;1.80;;
69327;SDS011;56472;52.114;5.492;2023-05-07T13:14:28;1.75;;;1.63;;
69327;SDS011;56472;52.114;5.492;2023-05-07T13:16:55;1.70;;;1.60;;
69327;SDS011;56472;52.114;5.492;2023-05-07T13:19:21;1.48;;;1.38;;
69327;SDS011;56472;52.114;5.492;2023-05-07T13:21:48;1.67;;;1.58;;
69327;SDS011;56472;52.114;5.492;2023-05-07T13:24:16;2.53;;;1.67;;
69327;SDS011;56472;52.114;5.492;2023-05-07T13:26:43;2.92;;;1.63;;
69327;SDS011;56472;52.114;5.492;2023-05-07T13:29:11;2.08;;;1.70;;
69327;SDS011;56472;52.114;5.492;2023-05-07T13:31:41;2.00;;;1.80;;
69327;SDS011;56472;52.114;5.492;2023-05-07T13:36:37;1.67;;;1.58;;
69327;SDS011;56472;52.114;5.492;2023-05-07T13:39:06;2.40;;;1.65;;
69327;SDS011;56472;52.114;5.492;2023-05-07T13:41:33;1.83;;;1.73;;
69327;SDS011;56472;52.114;5.492;2023-05-07T13:44:00;2.22;;;1.65;;
69327;SDS011;56472;52.114;5.492;2023-05-07T13:46:26;1.70;;;1.60;;
69327;SDS011;56472;52.114;5.492;2023-05-07T13:48:53;1.70;;;1.60;;
69327;SDS011;56472;52.114;5.492;2023-05-07T13:51:21;1.60;;;1.50;;
69327;SDS011;56472;52.114;5.492;2023-05-07T13:53:48;2.38;;;2.08;;
69327;SDS011;56472;52.114;5.492;2023-05-07T13:56:15;1.80;;;1.70;;
69327;SDS011;56472;52.114;5.492;2023-05-07T13:58:42;2.30;;;1.67;;
69327;SDS011;56472;52.114;5.492;2023-05-07T14:01:24;2.85;;;2.15;;
69327;SDS011;56472;52.114;5.492;2023-05-07T14:03:51;2.20;;;2.00;;
69327;SDS011;56472;52.114;5.492;2023-05-07T14:06:18;1.55;;;1.48;;
69327;SDS011;56472;52.114;5.492;2023-05-07T14:08:45;2.20;;;2.10;;
69327;SDS011;56472;52.114;5.492;2023-05-07T14:11:12;4.22;;;2.08;;
69327;SDS011;56472;52.114;5.492;2023-05-07T14:13:39;1.90;;;1.80;;
69327;SDS011;56472;52.114;5.492;2023-05-07T14:16:06;1.90;;;1.80;;
69327;SDS011;56472;52.114;5.492;2023-05-07T14:18:33;1.88;;;1.77;;
69327;SDS011;56472;52.114;5.492;2023-05-07T14:21:01;2.10;;;1.90;;
69327;SDS011;56472;52.114;5.492;2023-05-07T14:23:28;2.42;;;1.67;;
69327;SDS011;56472;52.114;5.492;2023-05-07T14:25:55;1.92;;;1.83;;
69327;SDS011;56472;52.114;5.492;2023-05-07T14:28:23;1.80;;;1.70;;
69327;SDS011;56472;52.114;5.492;2023-05-07T14:30:50;2.20;;;1.80;;
69327;SDS011;56472;52.114;5.492;2023-05-07T14:33:17;2.00;;;1.80;;
69327;SDS011;56472;52.114;5.492;2023-05-07T14:35:44;1.95;;;1.85;;
69327;SDS011;56472;52.114;5.492;2023-05-07T14:38:14;4.95;;;1.70;;
69327;SDS011;56472;52.114;5.492;2023-05-07T14:40:41;3.33;;;2.00;;
69327;SDS011;56472;52.114;5.492;2023-05-07T14:43:08;2.30;;;2.20;;
69327;SDS011;56472;52.114;5.492;2023-05-07T14:45:35;1.67;;;1.58;;
69327;SDS011;56472;52.114;5.492;2023-05-07T14:48:02;1.80;;;1.70;;
69327;SDS011;56472;52.114;5.492;2023-05-07T14:50:30;2.65;;;1.90;;
69327;SDS011;56472;52.114;5.492;2023-05-07T14:52:57;3.85;;;1.83;;
69327;SDS011;56472;52.114;5.492;2023-05-07T14:55:24;1.73;;;1.63;;
69327;SDS011;56472;52.114;5.492;2023-05-07T14:57:51;2.05;;;1.95;;
69327;SDS011;56472;52.114;5.492;2023-05-07T15:00:17;2.00;;;1.90;;
69327;SDS011;56472;52.114;5.492;2023-05-07T15:02:45;2.00;;;1.90;;
69327;SDS011;56472;52.114;5.492;2023-05-07T15:05:12;2.97;;;2.13;;
69327;SDS011;56472;52.114;5.492;2023-05-07T15:07:40;1.70;;;1.70;;
69327;SDS011;56472;52.114;5.492;2023-05-07T15:10:07;1.90;;;1.80;;
69327;SDS011;56472;52.114;5.492;2023-05-07T15:12:34;2.08;;;1.73;;
69327;SDS011;56472;52.114;5.492;2023-05-07T15:15:02;1.77;;;1.67;;
69327;SDS011;56472;52.114;5.492;2023-05-07T15:17:29;2.25;;;2.10;;
69327;SDS011;56472;52.114;5.492;2023-05-07T15:19:56;1.90;;;1.80;;
69327;SDS011;56472;52.114;5.492;2023-05-07T15:22:23;2.45;;;1.77;;
69327;SDS011;56472;52.114;5.492;2023-05-07T15:24:49;2.90;;;2.00;;
69327;SDS011;56472;52.114;5.492;2023-05-07T15:27:16;3.75;;;2.10;;
69327;SDS011;56472;52.114;5.492;2023-05-07T15:29:43;1.90;;;1.80;;
69327;SDS011;56472;52.114;5.492;2023-05-07T15:32:10;2.10;;;1.98;;
69327;SDS011;56472;52.114;5.492;2023-05-07T15:34:38;2.15;;;2.05;;
69327;SDS011;56472;52.114;5.492;2023-05-07T15:37:05;2.65;;;1.80;;
69327;SDS011;56472;52.114;5.492;2023-05-07T15:39:32;3.47;;;1.80;;
69327;SDS011;56472;52.114;5.492;2023-05-07T15:41:58;3.00;;;2.20;;
69327;SDS011;56472;52.114;5.492;2023-05-07T15:44:25;1.90;;;1.80;;
69327;SDS011;56472;52.114;5.492;2023-05-07T15:46:54;1.83;;;1.80;;
69327;SDS011;56472;52.114;5.492;2023-05-07T15:49:21;3.42;;;1.90;;
69327;SDS011;56472;52.114;5.492;2023-05-07T15:51:48;1.63;;;1.63;;
69327;SDS011;56472;52.114;5.492;2023-05-07T15:54:17;1.80;;;1.70;;
69327;SDS011;56472;52.114;5.492;2023-05-07T15:56:46;2.78;;;1.90;;
69327;SDS011;56472;52.114;5.492;2023-05-07T15:59:13;2.72;;;1.67;;
69327;SDS011;56472;52.114;5.492;2023-05-07T16:01:42;1.50;;;1.40;;
69327;SDS011;56472;52.114;5.492;2023-05-07T16:04:10;1.67;;;1.50;;
69327;SDS011;56472;52.114;5.492;2023-05-07T16:06:37;1.40;;;1.40;;
69327;SDS011;56472;52.114;5.492;2023-05-07T16:09:04;2.95;;;1.70;;
69327;SDS011;56472;52.114;5.492;2023-05-07T16:11:31;1.50;;;1.40;;
69327;SDS011;56472;52.114;5.492;2023-05-07T16:13:59;1.80;;;1.70;;
69327;SDS011;56472;52.114;5.492;2023-05-07T16:16:26;1.40;;;1.35;;
69327;SDS011;56472;52.114;5.492;2023-05-07T16:18:55;2.08;;;1.88;;
69327;SDS011;56472;52.114;5.492;2023-05-07T16:21:22;2.00;;;1.75;;
69327;SDS011;56472;52.114;5.492;2023-05-07T16:23:49;1.60;;;1.60;;
69327;SDS011;56472;52.114;5.492;2023-05-07T16:26:16;3.03;;;1.52;;
69327;SDS011;56472;52.114;5.492;2023-05-07T16:28:44;1.30;;;1.30;;
69327;SDS011;56472;52.114;5.492;2023-05-07T16:31:11;1.30;;;1.30;;
69327;SDS011;56472;52.114;5.492;2023-05-07T16:33:38;1.10;;;1.10;;
69327;SDS011;56472;52.114;5.492;2023-05-07T16:36:05;1.52;;;1.42;;
69327;SDS011;56472;52.114;5.492;2023-05-07T16:38:32;1.38;;;1.30;;
69327;SDS011;56472;52.114;5.492;2023-05-07T16:40:59;1.77;;;1.40;;
69327;SDS011;56472;52.114;5.492;2023-05-07T16:43:26;1.42;;;1.33;;
69327;SDS011;56472;52.114;5.492;2023-05-07T16:45:53;1.10;;;1.10;;
69327;SDS011;56472;52.114;5.492;2023-05-07T16:48:20;1.30;;;1.30;;
69327;SDS011;56472;52.114;5.492;2023-05-07T16:50:47;1.92;;;1.48;;
69327;SDS011;56472;52.114;5.492;2023-05-07T16:53:14;1.50;;;1.38;;
69327;SDS011;56472;52.114;5.492;2023-05-07T16:55:41;1.60;;;1.50;;
69327;SDS011;56472;52.114;5.492;2023-05-07T16:58:09;1.42;;;1.42;;
69327;SDS011;56472;52.114;5.492;2023-05-07T17:00:37;1.48;;;1.38;;
69327;SDS011;56472;52.114;5.492;2023-05-07T17:03:16;1.40;;;1.40;;
69327;SDS011;56472;52.114;5.492;2023-05-07T17:05:43;2.60;;;1.25;;
69327;SDS011;56472;52.114;5.492;2023-05-07T17:08:10;1.25;;;1.10;;
69327;SDS011;56472;52.114;5.492;2023-05-07T17:10:39;1.30;;;1.30;;
69327;SDS011;56472;52.114;5.492;2023-05-07T17:13:07;1.63;;;1.52;;
69327;SDS011;56472;52.114;5.492;2023-05-07T17:15:34;1.42;;;1.25;;
69327;SDS011;56472;52.114;5.492;2023-05-07T17:18:00;1.20;;;1.20;;
69327;SDS011;56472;52.114;5.492;2023-05-07T17:20:27;1.23;;;1.17;;
69327;SDS011;56472;52.114;5.492;2023-05-07T17:22:54;1.17;;;1.17;;
69327;SDS011;56472;52.114;5.492;2023-05-07T17:25:22;1.13;;;1.13;;
69327;SDS011;56472;52.114;5.492;2023-05-07T17:27:49;1.77;;;1.33;;
69327;SDS011;56472;52.114;5.492;2023-05-07T17:30:16;1.30;;;1.30;;
69327;SDS011;56472;52.114;5.492;2023-05-07T17:32:43;1.20;;;1.20;;
69327;SDS011;56472;52.114;5.492;2023-05-07T17:35:10;1.23;;;1.10;;
69327;SDS011;56472;52.114;5.492;2023-05-07T17:37:37;1.23;;;1.23;;
69327;SDS011;56472;52.114;5.492;2023-05-07T17:40:04;1.17;;;1.13;;
69327;SDS011;56472;52.114;5.492;2023-05-07T17:42:31;1.38;;;1.10;;
69327;SDS011;56472;52.114;5.492;2023-05-07T17:44:58;1.13;;;1.13;;
69327;SDS011;56472;52.114;5.492;2023-05-07T17:47:25;0.88;;;0.88;;
69327;SDS011;56472;52.114;5.492;2023-05-07T17:49:52;1.00;;;1.00;;
69327;SDS011;56472;52.114;5.492;2023-05-07T17:52:19;1.13;;;1.00;;
69327;SDS011;56472;52.114;5.492;2023-05-07T17:54:46;1.15;;;1.15;;
69327;SDS011;56472;52.114;5.492;2023-05-07T17:57:13;1.20;;;1.10;;
69327;SDS011;56472;52.114;5.492;2023-05-07T17:59:40;1.13;;;1.13;;
69327;SDS011;56472;52.114;5.492;2023-05-07T18:02:07;1.15;;;1.15;;
69327;SDS011;56472;52.114;5.492;2023-05-07T18:04:34;1.05;;;1.00;;
69327;SDS011;56472;52.114;5.492;2023-05-07T18:07:00;1.00;;;1.00;;
69327;SDS011;56472;52.114;5.492;2023-05-07T18:09:27;1.15;;;1.10;;
69327;SDS011;56472;52.114;5.492;2023-05-07T18:11:54;0.90;;;0.90;;
69327;SDS011;56472;52.114;5.492;2023-05-07T18:14:21;1.10;;;1.10;;
69327;SDS011;56472;52.114;5.492;2023-05-07T18:16:51;1.40;;;1.30;;
69327;SDS011;56472;52.114;5.492;2023-05-07T18:19:19;1.10;;;1.10;;
69327;SDS011;56472;52.114;5.492;2023-05-07T18:21:46;1.15;;;1.10;;
69327;SDS011;56472;52.114;5.492;2023-05-07T18:24:14;1.00;;;1.00;;
69327;SDS011;56472;52.114;5.492;2023-05-07T18:26:41;1.52;;;1.00;;
69327;SDS011;56472;52.114;5.492;2023-05-07T18:29:08;1.15;;;1.13;;
69327;SDS011;56472;52.114;5.492;2023-05-07T18:31:35;1.10;;;1.10;;
69327;SDS011;56472;52.114;5.492;2023-05-07T18:34:03;1.40;;;1.30;;
69327;SDS011;56472;52.114;5.492;2023-05-07T18:36:31;1.00;;;1.00;;
69327;SDS011;56472;52.114;5.492;2023-05-07T18:38:58;1.00;;;0.90;;
69327;SDS011;56472;52.114;5.492;2023-05-07T18:41:26;1.38;;;1.30;;
69327;SDS011;56472;52.114;5.492;2023-05-07T18:43:53;2.67;;;1.08;;
69327;SDS011;56472;52.114;5.492;2023-05-07T18:46:20;1.00;;;1.00;;
69327;SDS011;56472;52.114;5.492;2023-05-07T18:48:47;1.10;;;1.10;;
69327;SDS011;56472;52.114;5.492;2023-05-07T18:51:14;1.10;;;1.00;;
69327;SDS011;56472;52.114;5.492;2023-05-07T18:53:41;1.13;;;1.02;;
69327;SDS011;56472;52.114;5.492;2023-05-07T18:56:08;1.02;;;1.02;;
69327;SDS011;56472;52.114;5.492;2023-05-07T18:58:35;1.70;;;1.08;;
69327;SDS011;56472;52.114;5.492;2023-05-07T19:01:02;0.90;;;0.90;;
69327;SDS011;56472;52.114;5.492;2023-05-07T19:06:01;1.25;;;1.02;;
69327;SDS011;56472;52.114;5.492;2023-05-07T19:08:28;1.00;;;1.00;;
69327;SDS011;56472;52.114;5.492;2023-05-07T19:10:55;0.90;;;0.90;;
69327;SDS011;56472;52.114;5.492;2023-05-07T19:13:22;0.88;;;0.88;;
69327;SDS011;56472;52.114;5.492;2023-05-07T19:15:53;0.90;;;0.90;;
69327;SDS011;56472;52.114;5.492;2023-05-07T19:18:20;0.93;;;0.80;;
69327;SDS011;56472;52.114;5.492;2023-05-07T19:20:47;0.95;;;0.90;;
69327;SDS011;56472;52.114;5.492;2023-05-07T19:23:19;0.73;;;0.73;;
69327;SDS011;56472;52.114;5.492;2023-05-07T19:25:46;1.20;;;1.10;;
69327;SDS011;56472;52.114;5.492;2023-05-07T19:28:13;1.00;;;1.00;;
69327;SDS011;56472;52.114;5.492;2023-05-07T19:30:41;0.98;;;0.90;;
69327;SDS011;56472;52.114;5.492;2023-05-07T19:33:08;0.90;;;0.90;;
69327;SDS011;56472;52.114;5.492;2023-05-07T19:35:35;0.90;;;0.90;;
69327;SDS011;56472;52.114;5.492;2023-05-07T19:38:02;0.80;;;0.80;;
69327;SDS011;56472;52.114;5.492;2023-05-07T19:40:30;1.00;;;1.00;;
69327;SDS011;56472;52.114;5.492;2023-05-07T19:42:58;0.90;;;0.90;;
69327;SDS011;56472;52.114;5.492;2023-05-07T19:45:25;0.90;;;0.90;;
69327;SDS011;56472;52.114;5.492;2023-05-07T19:47:52;0.70;;;0.70;;
69327;SDS011;56472;52.114;5.492;2023-05-07T19:50:19;0.90;;;0.85;;
69327;SDS011;56472;52.114;5.492;2023-05-07T19:52:47;0.90;;;0.90;;
69327;SDS011;56472;52.114;5.492;2023-05-07T19:55:14;0.90;;;0.90;;
69327;SDS011;56472;52.114;5.492;2023-05-07T19:57:41;1.20;;;0.90;;
69327;SDS011;56472;52.114;5.492;2023-05-07T20:00:08;0.85;;;0.85;;
69327;SDS011;56472;52.114;5.492;2023-05-07T20:02:39;0.80;;;0.80;;
69327;SDS011;56472;52.114;5.492;2023-05-07T20:05:06;1.15;;;1.00;;
69327;SDS011;56472;52.114;5.492;2023-05-07T20:07:33;0.95;;;0.95;;
69327;SDS011;56472;52.114;5.492;2023-05-07T20:10:01;0.82;;;0.82;;
69327;SDS011;56472;52.114;5.492;2023-05-07T20:12:28;0.70;;;0.70;;
69327;SDS011;56472;52.114;5.492;2023-05-07T20:14:54;0.90;;;0.90;;
69327;SDS011;56472;52.114;5.492;2023-05-07T20:17:21;0.90;;;0.90;;
69327;SDS011;56472;52.114;5.492;2023-05-07T20:19:48;1.85;;;0.90;;
69327;SDS011;56472;52.114;5.492;2023-05-07T20:22:15;0.88;;;0.88;;
69327;SDS011;56472;52.114;5.492;2023-05-07T20:24:42;1.27;;;0.85;;
69327;SDS011;56472;52.114;5.492;2023-05-07T20:27:09;0.90;;;0.90;;
69327;SDS011;56472;52.114;5.492;2023-05-07T20:29:36;0.70;;;0.70;;
69327;SDS011;56472;52.114;5.492;2023-05-07T20:32:03;1.90;;;0.80;;
69327;SDS011;56472;52.114;5.492;2023-05-07T20:34:30;0.80;;;0.80;;
69327;SDS011;56472;52.114;5.492;2023-05-07T20:36:57;0.80;;;0.80;;
69327;SDS011;56472;52.114;5.492;2023-05-07T20:39:24;0.65;;;0.65;;
69327;SDS011;56472;52.114;5.492;2023-05-07T20:41:51;0.65;;;0.65;;
69327;SDS011;56472;52.114;5.492;2023-05-07T20:44:18;25.42;;;0.90;;
69327;SDS011;56472;52.114;5.492;2023-05-07T20:46:45;0.70;;;0.70;;
69327;SDS011;56472;52.114;5.492;2023-05-07T20:49:12;0.63;;;0.60;;
69327;SDS011;56472;52.114;5.492;2023-05-07T20:51:40;0.70;;;0.70;;
69327;SDS011;56472;52.114;5.492;2023-05-07T20:54:07;2.75;;;0.60;;
69327;SDS011;56472;52.114;5.492;2023-05-07T20:56:33;0.70;;;0.70;;
69327;SDS011;56472;52.114;5.492;2023-05-07T20:59:00;0.40;;;0.40;;
69327;SDS011;56472;52.114;5.492;2023-05-07T21:01:27;2.95;;;0.80;;
69327;SDS011;56472;52.114;5.492;2023-05-07T21:03:55;0.80;;;0.80;;
69327;SDS011;56472;52.114;5.492;2023-05-07T21:06:22;0.80;;;0.80;;
69327;SDS011;56472;52.114;5.492;2023-05-07T21:08:49;1.42;;;0.70;;
69327;SDS011;56472;52.114;5.492;2023-05-07T21:11:16;0.80;;;0.80;;
69327;SDS011;56472;52.114;5.492;2023-05-07T21:13:43;0.60;;;0.60;;
69327;SDS011;56472;52.114;5.492;2023-05-07T21:16:10;0.70;;;0.70;;
69327;SDS011;56472;52.114;5.492;2023-05-07T21:18:37;0.68;;;0.57;;
69327;SDS011;56472;52.114;5.492;2023-05-07T21:21:08;0.40;;;0.40;;
69327;SDS011;56472;52.114;5.492;2023-05-07T21:23:35;0.52;;;0.52;;
69327;SDS011;56472;52.114;5.492;2023-05-07T21:26:02;0.60;;;0.60;;
69327;SDS011;56472;52.114;5.492;2023-05-07T21:28:29;2.38;;;0.70;;
69327;SDS011;56472;52.114;5.492;2023-05-07T21:30:56;0.50;;;0.50;;
69327;SDS011;56472;52.114;5.492;2023-05-07T21:33:23;0.80;;;0.80;;
69327;SDS011;56472;52.114;5.492;2023-05-07T21:35:50;0.40;;;0.40;;
69327;SDS011;56472;52.114;5.492;2023-05-07T21:38:17;0.57;;;0.57;;
69327;SDS011;56472;52.114;5.492;2023-05-07T21:40:44;0.60;;;0.60;;
69327;SDS011;56472;52.114;5.492;2023-05-07T21:43:11;1.85;;;0.60;;
69327;SDS011;56472;52.114;5.492;2023-05-07T21:45:38;0.40;;;0.40;;
69327;SDS011;56472;52.114;5.492;2023-05-07T21:48:06;0.55;;;0.55;;
69327;SDS011;56472;52.114;5.492;2023-05-07T21:50:33;0.40;;;0.40;;
69327;SDS011;56472;52.114;5.492;2023-05-07T21:53:01;0.50;;;0.50;;
69327;SDS011;56472;52.114;5.492;2023-05-07T21:55:27;0.60;;;0.57;;
69327;SDS011;56472;52.114;5.492;2023-05-07T21:57:54;0.50;;;0.50;;
69327;SDS011;56472;52.114;5.492;2023-05-07T22:00:31;0.40;;;0.40;;
69327;SDS011;56472;52.114;5.492;2023-05-07T22:02:58;0.40;;;0.40;;
69327;SDS011;56472;52.114;5.492;2023-05-07T22:05:25;0.50;;;0.50;;
69327;SDS011;56472;52.114;5.492;2023-05-07T22:07:52;0.50;;;0.50;;
69327;SDS011;56472;52.114;5.492;2023-05-07T22:10:19;0.50;;;0.50;;
69327;SDS011;56472;52.114;5.492;2023-05-07T22:12:48;0.50;;;0.50;;
69327;SDS011;56472;52.114;5.492;2023-05-07T22:15:15;0.40;;;0.40;;
69327;SDS011;56472;52.114;5.492;2023-05-07T22:17:42;0.40;;;0.40;;
69327;SDS011;56472;52.114;5.492;2023-05-07T22:20:09;0.50;;;0.50;;
69327;SDS011;56472;52.114;5.492;2023-05-07T22:22:53;0.50;;;0.50;;
69327;SDS011;56472;52.114;5.492;2023-05-07T22:25:22;0.43;;;0.43;;
69327;SDS011;56472;52.114;5.492;2023-05-07T22:27:49;0.38;;;0.38;;
69327;SDS011;56472;52.114;5.492;2023-05-07T22:30:17;0.40;;;0.40;;
69327;SDS011;56472;52.114;5.492;2023-05-07T22:32:44;0.40;;;0.40;;
69327;SDS011;56472;52.114;5.492;2023-05-07T22:35:11;0.40;;;0.40;;
69327;SDS011;56472;52.114;5.492;2023-05-07T22:37:37;0.50;;;0.50;;
69327;SDS011;56472;52.114;5.492;2023-05-07T22:40:05;0.45;;;0.45;;
69327;SDS011;56472;52.114;5.492;2023-05-07T22:42:32;0.43;;;0.43;;
69327;SDS011;56472;52.114;5.492;2023-05-07T22:44:59;0.45;;;0.45;;
69327;SDS011;56472;52.114;5.492;2023-05-07T22:47:29;0.40;;;0.40;;
69327;SDS011;56472;52.114;5.492;2023-05-07T22:49:56;0.40;;;0.40;;
69327;SDS011;56472;52.114;5.492;2023-05-07T22:52:23;0.52;;;0.40;;
69327;SDS011;56472;52.114;5.492;2023-05-07T22:54:50;0.40;;;0.40;;
69327;SDS011;56472;52.114;5.492;2023-05-07T22:57:17;0.30;;;0.30;;
69327;SDS011;56472;52.114;5.492;2023-05-07T22:59:44;0.30;;;0.30;;
69327;SDS011;56472;52.114;5.492;2023-05-07T23:02:11;0.50;;;0.30;;
69327;SDS011;56472;52.114;5.492;2023-05-07T23:04:38;0.43;;;0.43;;
69327;SDS011;56472;52.114;5.492;2023-05-07T23:07:05;0.45;;;0.45;;
69327;SDS011;56472;52.114;5.492;2023-05-07T23:09:32;0.40;;;0.40;;
69327;SDS011;56472;52.114;5.492;2023-05-07T23:11:58;0.93;;;0.32;;
69327;SDS011;56472;52.114;5.492;2023-05-07T23:14:25;0.32;;;0.32;;
69327;SDS011;56472;52.114;5.492;2023-05-07T23:16:52;0.30;;;0.30;;
69327;SDS011;56472;52.114;5.492;2023-05-07T23:19:19;0.40;;;0.40;;
69327;SDS011;56472;52.114;5.492;2023-05-07T23:21:46;0.45;;;0.45;;
69327;SDS011;56472;52.114;5.492;2023-05-07T23:24:14;0.50;;;0.50;;
69327;SDS011;56472;52.114;5.492;2023-05-07T23:26:41;0.30;;;0.30;;
69327;SDS011;56472;52.114;5.492;2023-05-07T23:29:08;0.30;;;0.30;;
69327;SDS011;56472;52.114;5.492;2023-05-07T23:31:35;0.40;;;0.40;;
69327;SDS011;56472;52.114;5.492;2023-05-07T23:34:02;0.40;;;0.40;;
69327;SDS011;56472;52.114;5.492;2023-05-07T23:36:29;0.30;;;0.30;;
69327;SDS011;56472;52.114;5.492;2023-05-07T23:38:57;0.30;;;0.30;;
69327;SDS011;56472;52.114;5.492;2023-05-07T23:41:24;0.30;;;0.30;;
69327;SDS011;56472;52.114;5.492;2023-05-07T23:43:51;0.30;;;0.30;;
69327;SDS011;56472;52.114;5.492;2023-05-07T23:46:18;0.40;;;0.40;;
69327;SDS011;56472;52.114;5.492;2023-05-07T23:48:45;0.30;;;0.30;;
69327;SDS011;56472;52.114;5.492;2023-05-07T23:51:12;0.38;;;0.38;;
69327;SDS011;56472;52.114;5.492;2023-05-07T23:53:39;0.30;;;0.30;;
69327;SDS011;56472;52.114;5.492;2023-05-07T23:56:06;0.30;;;0.30;;
69327;SDS011;56472;52.114;5.492;2023-05-07T23:58:33;0.35;;;0.35;;
